createdAt,value
2023-05-19T00:02:05.918Z,2.50
2023-05-19T00:04:33.624Z,2.73
2023-05-19T00:07:01.932Z,2.30
2023-05-19T00:09:28.904Z,2.27
2023-05-19T00:11:56.805Z,2.17
2023-05-19T00:14:23.851Z,2.30
2023-05-19T00:16:50.984Z,2.70
2023-05-19T00:19:18.766Z,2.53
2023-05-19T00:21:45.593Z,2.77
2023-05-19T00:24:13.178Z,2.20
2023-05-19T00:26:40.089Z,4.10
2023-05-19T00:29:06.935Z,2.80
2023-05-19T00:31:36.573Z,2.50
2023-05-19T00:34:03.454Z,3.13
2023-05-19T00:36:31.102Z,2.20
2023-05-19T00:38:57.902Z,2.07
2023-05-19T00:41:25.060Z,2.50
2023-05-19T00:43:51.917Z,1.90
2023-05-19T00:46:19.607Z,3.10
2023-05-19T00:48:46.497Z,2.57
2023-05-19T00:51:14.747Z,3.43
2023-05-19T00:53:41.740Z,2.37
2023-05-19T00:56:08.514Z,2.47
2023-05-19T00:58:36.721Z,2.50
2023-05-19T01:01:04.594Z,2.23
2023-05-19T01:03:35.043Z,2.60
2023-05-19T01:06:07.149Z,2.47
2023-05-19T01:08:38.307Z,2.23
2023-05-19T01:11:06.889Z,2.17
2023-05-19T01:13:35.721Z,2.33
2023-05-19T01:16:40.223Z,2.10
2023-05-19T01:19:22.035Z,2.10
2023-05-19T01:22:16.432Z,2.40
2023-05-19T01:25:10.360Z,2.40
2023-05-19T01:27:58.812Z,2.37
2023-05-19T01:30:41.602Z,2.07
2023-05-19T01:33:16.597Z,2.03
2023-05-19T01:35:43.768Z,2.20
2023-05-19T01:38:12.132Z,2.57
2023-05-19T01:40:40.743Z,2.07
2023-05-19T01:43:09.651Z,2.60
2023-05-19T01:45:37.212Z,2.20
2023-05-19T01:48:04.854Z,2.90
2023-05-19T01:50:33.175Z,2.03
2023-05-19T01:53:01.289Z,1.90
2023-05-19T01:55:28.223Z,2.40
2023-05-19T01:58:19.529Z,2.70
2023-05-19T02:01:01.117Z,2.30
2023-05-19T02:03:46.024Z,2.63
2023-05-19T02:06:37.668Z,1.90
2023-05-19T02:09:23.276Z,2.20
2023-05-19T02:12:00.370Z,1.67
2023-05-19T02:14:36.874Z,2.40
2023-05-19T02:17:04.827Z,2.90
2023-05-19T02:19:34.340Z,1.93
2023-05-19T02:22:01.143Z,2.67
2023-05-19T02:24:27.934Z,2.10
2023-05-19T02:26:54.763Z,2.10
2023-05-19T02:29:21.724Z,1.77
2023-05-19T02:31:48.983Z,2.27
2023-05-19T02:34:15.858Z,1.70
2023-05-19T02:36:43.177Z,1.73
2023-05-19T02:39:11.137Z,1.80
2023-05-19T02:41:41.013Z,2.73
2023-05-19T02:44:08.015Z,2.07
2023-05-19T02:46:34.842Z,1.87
2023-05-19T02:49:01.686Z,2.50
2023-05-19T02:51:28.492Z,1.70
2023-05-19T02:53:55.254Z,2.03
2023-05-19T02:56:22.114Z,2.53
2023-05-19T02:58:48.899Z,2.20
2023-05-19T03:01:16.551Z,1.80
2023-05-19T03:03:43.581Z,2.30
2023-05-19T03:06:10.374Z,1.80
2023-05-19T03:08:37.104Z,1.80
2023-05-19T03:11:04.440Z,1.70
2023-05-19T03:13:31.867Z,2.00
2023-05-19T03:15:59.237Z,2.20
2023-05-19T03:18:28.602Z,1.60
2023-05-19T03:20:55.571Z,2.00
2023-05-19T03:23:22.460Z,1.90
2023-05-19T03:25:49.291Z,1.93
2023-05-19T03:28:16.517Z,2.00
2023-05-19T03:30:43.275Z,2.13
2023-05-19T03:33:10.305Z,1.83
2023-05-19T03:35:37.337Z,1.43
2023-05-19T03:38:04.087Z,2.70
2023-05-19T03:40:31.042Z,1.87
2023-05-19T03:42:57.891Z,2.20
2023-05-19T03:45:24.636Z,1.70
2023-05-19T03:47:51.401Z,1.93
2023-05-19T03:50:18.357Z,1.67
2023-05-19T03:52:45.548Z,1.70
2023-05-19T03:55:14.633Z,2.00
2023-05-19T03:57:41.628Z,2.47
2023-05-19T04:00:11.234Z,2.30
2023-05-19T04:02:38.503Z,2.90
2023-05-19T04:05:05.796Z,2.00
2023-05-19T04:07:32.603Z,2.20
2023-05-19T04:09:59.351Z,2.50
2023-05-19T04:12:26.154Z,2.37
2023-05-19T04:14:52.993Z,2.00
2023-05-19T04:17:19.760Z,2.50
2023-05-19T04:19:46.541Z,2.43
2023-05-19T04:22:13.353Z,2.47
2023-05-19T04:24:40.385Z,2.40
2023-05-19T04:27:11.912Z,2.27
2023-05-19T04:29:40.039Z,2.50
2023-05-19T04:32:08.280Z,2.43
2023-05-19T04:34:35.520Z,2.20
2023-05-19T04:37:02.607Z,2.10
2023-05-19T04:39:29.314Z,2.50
2023-05-19T04:41:56.615Z,2.37
2023-05-19T04:44:23.390Z,2.73
2023-05-19T04:46:54.238Z,1.87
2023-05-19T04:49:21.284Z,2.63
2023-05-19T04:51:50.276Z,3.10
2023-05-19T04:54:28.666Z,3.00
2023-05-19T04:56:55.443Z,2.57
2023-05-19T04:59:23.082Z,2.43
2023-05-19T05:01:49.923Z,2.47
2023-05-19T05:04:16.759Z,3.07
2023-05-19T05:06:47.782Z,2.80
2023-05-19T05:09:15.923Z,2.30
2023-05-19T05:11:43.020Z,2.80
2023-05-19T05:14:10.485Z,2.73
2023-05-19T05:16:37.532Z,2.70
2023-05-19T05:19:04.769Z,2.47
2023-05-19T05:21:31.994Z,2.90
2023-05-19T05:23:59.318Z,2.30
2023-05-19T05:26:30.613Z,3.50
2023-05-19T05:28:57.423Z,2.50
2023-05-19T05:31:24.238Z,3.10
2023-05-19T05:33:51.137Z,2.50
2023-05-19T05:36:17.925Z,3.67
2023-05-19T05:38:44.712Z,2.73
2023-05-19T05:41:11.441Z,3.00
2023-05-19T05:43:38.179Z,2.70
2023-05-19T05:46:05.056Z,2.80
2023-05-19T05:48:32.242Z,3.17
2023-05-19T05:50:59.884Z,3.10
2023-05-19T05:53:32.333Z,2.53
2023-05-19T05:55:59.492Z,2.80
2023-05-19T05:58:26.290Z,3.00
2023-05-19T06:00:55.248Z,2.83
2023-05-19T06:03:24.424Z,3.17
2023-05-19T06:05:51.451Z,3.00
2023-05-19T06:08:18.307Z,3.33
2023-05-19T06:10:47.248Z,3.17
2023-05-19T06:13:17.814Z,3.27
2023-05-19T06:15:44.588Z,3.40
2023-05-19T06:18:11.353Z,3.47
2023-05-19T06:20:38.163Z,3.00
2023-05-19T06:23:04.924Z,3.07
2023-05-19T06:25:32.135Z,3.30
2023-05-19T06:27:59.072Z,3.50
2023-05-19T06:30:25.992Z,3.27
2023-05-19T06:32:52.803Z,3.87
2023-05-19T06:35:19.792Z,3.27
2023-05-19T06:37:46.505Z,3.43
2023-05-19T06:40:13.565Z,3.30
2023-05-19T06:42:40.403Z,3.20
2023-05-19T06:45:07.847Z,2.83
2023-05-19T06:47:34.603Z,2.77
2023-05-19T06:50:01.346Z,3.10
2023-05-19T06:52:28.267Z,2.87
2023-05-19T06:54:55.066Z,3.30
2023-05-19T06:57:21.803Z,3.70
2023-05-19T06:59:48.605Z,3.30
2023-05-19T07:02:15.381Z,2.80
2023-05-19T07:04:43.112Z,3.13
2023-05-19T07:07:10.025Z,2.53
2023-05-19T07:09:36.768Z,3.30
2023-05-19T07:12:03.649Z,2.80
2023-05-19T07:14:30.530Z,2.70
2023-05-19T07:16:57.323Z,3.63
2023-05-19T07:19:24.224Z,3.20
2023-05-19T07:21:51.205Z,3.53
2023-05-19T07:24:18.119Z,3.70
2023-05-19T07:26:44.914Z,3.17
2023-05-19T07:29:11.671Z,3.67
2023-05-19T07:31:38.623Z,3.10
2023-05-19T07:34:05.809Z,3.50
2023-05-19T07:36:32.780Z,3.10
2023-05-19T07:38:59.626Z,2.97
2023-05-19T07:41:26.497Z,3.00
2023-05-19T07:43:53.278Z,2.97
2023-05-19T07:46:20.496Z,2.87
2023-05-19T07:48:47.330Z,3.67
2023-05-19T07:51:14.475Z,3.70
2023-05-19T07:53:41.244Z,3.00
2023-05-19T07:56:08.015Z,3.00
2023-05-19T07:58:34.876Z,3.07
2023-05-19T08:01:01.682Z,3.03
2023-05-19T08:03:29.395Z,3.07
2023-05-19T08:05:56.414Z,2.90
2023-05-19T08:08:23.289Z,3.17
2023-05-19T08:10:50.035Z,2.90
2023-05-19T08:13:16.873Z,2.90
2023-05-19T08:15:43.977Z,3.00
2023-05-19T08:18:10.898Z,3.10
2023-05-19T08:20:37.715Z,3.00
2023-05-19T08:23:04.561Z,2.83
2023-05-19T08:25:31.522Z,3.47
2023-05-19T08:27:58.283Z,2.70
2023-05-19T08:30:25.150Z,2.97
2023-05-19T08:32:51.999Z,2.83
2023-05-19T08:35:18.886Z,3.53
2023-05-19T08:37:46.009Z,2.57
2023-05-19T08:40:17.924Z,2.10
2023-05-19T08:42:48.349Z,2.50
2023-05-19T08:45:17.643Z,2.40
2023-05-19T08:47:47.251Z,2.57
2023-05-19T08:50:20.239Z,3.17
2023-05-19T08:53:01.658Z,2.47
2023-05-19T08:55:33.842Z,2.53
2023-05-19T08:58:05.087Z,2.50
2023-05-19T09:00:33.102Z,2.33
2023-05-19T09:03:16.901Z,2.20
2023-05-19T09:05:46.796Z,2.20
2023-05-19T09:08:13.795Z,1.90
2023-05-19T09:10:40.868Z,2.10
2023-05-19T09:13:07.723Z,1.50
2023-05-19T09:15:36.810Z,2.20
2023-05-19T09:18:11.970Z,1.93
2023-05-19T09:20:43.868Z,1.70
2023-05-19T09:23:15.936Z,1.77
2023-05-19T09:25:49.983Z,2.00
2023-05-19T09:28:31.574Z,2.50
2023-05-19T09:31:09.556Z,1.90
2023-05-19T09:33:38.378Z,1.30
2023-05-19T09:36:06.470Z,1.90
2023-05-19T09:38:33.483Z,1.70
2023-05-19T09:41:00.838Z,1.67
2023-05-19T09:43:32.748Z,1.77
2023-05-19T09:46:07.874Z,1.80
2023-05-19T09:48:36.482Z,1.40
2023-05-19T09:51:06.420Z,1.83
2023-05-19T09:53:34.866Z,1.67
2023-05-19T09:56:03.402Z,1.73
2023-05-19T09:58:37.150Z,1.80
2023-05-19T10:01:04.851Z,1.70
2023-05-19T10:03:35.268Z,1.60
2023-05-19T10:06:07.452Z,2.00
2023-05-19T10:08:34.546Z,1.70
2023-05-19T10:11:02.326Z,1.40
2023-05-19T10:13:30.822Z,1.70
2023-05-19T10:15:59.897Z,2.27
2023-05-19T10:18:30.157Z,1.87
2023-05-19T10:20:58.169Z,1.43
2023-05-19T10:23:25.608Z,1.53
2023-05-19T10:25:57.756Z,1.57
2023-05-19T10:28:31.693Z,1.70
2023-05-19T10:31:01.705Z,2.03
2023-05-19T10:33:38.769Z,1.80
2023-05-19T10:36:14.492Z,1.20
2023-05-19T10:39:22.411Z,1.30
2023-05-19T10:42:09.137Z,1.80
2023-05-19T10:44:57.788Z,1.70
2023-05-19T10:47:25.693Z,1.67
2023-05-19T10:49:53.952Z,1.60
2023-05-19T10:52:23.312Z,1.80
2023-05-19T10:54:51.306Z,1.50
2023-05-19T10:57:19.835Z,1.50
2023-05-19T10:59:47.189Z,1.50
2023-05-19T11:02:42.958Z,1.50
2023-05-19T11:05:16.280Z,1.23
2023-05-19T11:07:44.619Z,1.60
2023-05-19T11:10:11.970Z,1.17
2023-05-19T11:12:43.821Z,1.63
2023-05-19T11:15:26.261Z,1.63
2023-05-19T11:17:53.881Z,1.27
2023-05-19T11:20:26.633Z,1.47
2023-05-19T11:23:09.525Z,1.83
2023-05-19T11:25:48.360Z,1.43
2023-05-19T11:28:27.927Z,1.07
2023-05-19T11:30:57.435Z,1.60
2023-05-19T11:33:27.994Z,1.40
2023-05-19T11:36:00.480Z,1.30
2023-05-19T11:38:30.071Z,1.57
2023-05-19T11:40:57.311Z,1.57
2023-05-19T11:43:25.214Z,1.50
2023-05-19T11:45:53.683Z,1.40
2023-05-19T11:48:24.841Z,1.67
2023-05-19T11:50:52.409Z,1.70
2023-05-19T11:53:22.306Z,2.03
2023-05-19T11:55:49.611Z,1.70
2023-05-19T11:58:17.307Z,1.70
2023-05-19T12:00:47.374Z,1.50
2023-05-19T12:03:14.588Z,1.30
2023-05-19T12:05:46.655Z,1.67
2023-05-19T12:08:14.633Z,1.30
2023-05-19T12:10:41.480Z,1.50
2023-05-19T12:13:09.572Z,2.00
2023-05-19T12:15:37.394Z,2.23
2023-05-19T12:18:04.420Z,2.03
2023-05-19T12:20:32.874Z,1.50
2023-05-19T12:23:01.083Z,1.90
2023-05-19T12:25:29.176Z,1.70
2023-05-19T12:28:00.346Z,2.00
2023-05-19T12:30:31.578Z,1.73
2023-05-19T12:32:58.913Z,1.40
2023-05-19T12:35:30.125Z,2.10
2023-05-19T12:37:57.652Z,1.90
2023-05-19T12:40:26.175Z,1.63
2023-05-19T12:42:58.886Z,1.50
2023-05-19T12:45:28.009Z,1.70
2023-05-19T12:47:55.085Z,1.60
2023-05-19T12:50:22.141Z,1.80
2023-05-19T12:52:53.380Z,1.77
2023-05-19T12:55:21.061Z,1.60
2023-05-19T12:57:57.252Z,1.53
2023-05-19T13:00:27.731Z,1.80
2023-05-19T13:02:56.321Z,1.50
2023-05-19T13:05:23.875Z,1.70
2023-05-19T13:07:58.432Z,1.90
2023-05-19T13:10:29.441Z,1.87
2023-05-19T13:12:57.143Z,1.87
2023-05-19T13:15:26.259Z,1.90
2023-05-19T13:17:54.372Z,1.80
2023-05-19T13:20:21.864Z,1.70
2023-05-19T13:22:49.152Z,1.87
2023-05-19T13:25:16.805Z,1.40
2023-05-19T13:27:45.946Z,1.70
2023-05-19T13:30:13.033Z,1.90
2023-05-19T13:32:40.019Z,1.70
2023-05-19T13:35:07.315Z,1.70
2023-05-19T13:37:34.859Z,2.07
2023-05-19T13:40:02.440Z,1.67
2023-05-19T13:42:29.178Z,2.20
2023-05-19T13:44:56.426Z,2.00
2023-05-19T13:47:23.958Z,2.10
2023-05-19T13:49:51.648Z,2.03
2023-05-19T13:52:19.623Z,2.27
2023-05-19T13:54:46.553Z,1.87
2023-05-19T13:57:13.489Z,2.40
2023-05-19T13:59:49.324Z,1.93
2023-05-19T14:02:24.395Z,2.00
2023-05-19T14:04:51.369Z,1.70
2023-05-19T14:07:18.344Z,1.60
2023-05-19T14:09:46.107Z,2.20
2023-05-19T14:12:13.813Z,2.50
2023-05-19T14:14:40.700Z,1.80
2023-05-19T14:17:07.535Z,2.27
2023-05-19T14:19:34.316Z,2.47
2023-05-19T14:22:01.185Z,2.53
2023-05-19T14:24:27.993Z,1.97
2023-05-19T14:26:54.875Z,2.03
2023-05-19T14:29:21.693Z,2.07
2023-05-19T14:31:48.459Z,2.03
2023-05-19T14:34:20.888Z,2.20
2023-05-19T14:36:48.673Z,2.10
2023-05-19T14:39:15.739Z,2.03
2023-05-19T14:41:42.602Z,2.30
2023-05-19T14:44:09.467Z,2.13
2023-05-19T14:46:36.766Z,2.20
2023-05-19T14:49:03.612Z,1.67
2023-05-19T14:51:31.588Z,1.63
2023-05-19T14:53:58.418Z,2.20
2023-05-19T14:56:25.283Z,2.20
2023-05-19T14:58:52.021Z,1.90
2023-05-19T15:01:18.853Z,1.70
2023-05-19T15:03:45.766Z,1.70
2023-05-19T15:06:12.620Z,2.10
2023-05-19T15:08:40.685Z,1.50
2023-05-19T15:11:07.870Z,2.07
2023-05-19T15:13:34.620Z,1.67
2023-05-19T15:16:16.331Z,1.93
2023-05-19T15:18:44.098Z,1.50
2023-05-19T15:21:10.977Z,1.80
2023-05-19T15:23:37.765Z,1.87
2023-05-19T15:26:04.787Z,2.00
2023-05-19T15:28:32.132Z,1.90
2023-05-19T15:30:59.065Z,2.00
2023-05-19T15:33:25.942Z,2.03
2023-05-19T15:35:52.837Z,2.30
2023-05-19T15:38:20.088Z,2.00
2023-05-19T15:40:47.053Z,1.73
2023-05-19T15:43:13.908Z,2.00
2023-05-19T15:45:40.929Z,2.00
2023-05-19T15:48:08.250Z,1.87
2023-05-19T15:50:36.032Z,2.40
2023-05-19T15:53:03.342Z,1.80
2023-05-19T15:55:30.187Z,1.80
2023-05-19T15:57:57.000Z,1.90
2023-05-19T16:00:23.905Z,2.20
2023-05-19T16:02:51.173Z,1.93
2023-05-19T16:05:18.223Z,2.10
2023-05-19T16:07:45.198Z,2.30
2023-05-19T16:10:12.060Z,1.83
2023-05-19T16:12:38.863Z,2.13
2023-05-19T16:15:06.132Z,2.40
2023-05-19T16:17:33.184Z,2.27
2023-05-19T16:20:00.039Z,1.97
2023-05-19T16:22:27.167Z,1.93
2023-05-19T16:24:53.949Z,2.17
2023-05-19T16:27:20.837Z,1.77
2023-05-19T16:29:47.652Z,2.17
2023-05-19T16:32:14.545Z,2.03
2023-05-19T16:34:41.389Z,2.10
2023-05-19T16:37:08.193Z,1.87
2023-05-19T16:39:38.142Z,2.10
2023-05-19T16:42:05.188Z,2.37
2023-05-19T16:44:32.000Z,2.03
2023-05-19T16:46:58.759Z,1.90
2023-05-19T16:49:25.661Z,2.20
2023-05-19T16:51:53.128Z,1.90
2023-05-19T16:54:21.081Z,2.10
2023-05-19T16:56:47.881Z,2.50
2023-05-19T16:59:14.622Z,1.80
2023-05-19T17:01:41.632Z,1.97
2023-05-19T17:04:08.500Z,2.00
2023-05-19T17:06:35.838Z,2.30
2023-05-19T17:09:02.664Z,2.00
2023-05-19T17:11:29.531Z,2.00
2023-05-19T17:13:56.392Z,2.17
2023-05-19T17:16:23.785Z,1.53
2023-05-19T17:18:51.070Z,2.03
2023-05-19T17:21:17.995Z,2.20
2023-05-19T17:23:44.749Z,2.27
2023-05-19T17:26:12.019Z,2.40
2023-05-19T17:28:38.838Z,1.60
2023-05-19T17:31:12.279Z,2.43
2023-05-19T17:33:39.374Z,2.73
2023-05-19T17:36:07.226Z,2.10
2023-05-19T17:38:34.164Z,2.83
2023-05-19T17:41:02.140Z,1.87
2023-05-19T17:43:29.090Z,1.93
2023-05-19T17:45:55.981Z,1.83
2023-05-19T17:48:23.109Z,1.97
2023-05-19T17:50:49.871Z,2.80
2023-05-19T17:53:16.869Z,2.30
2023-05-19T17:55:57.743Z,3.30
2023-05-19T17:58:24.765Z,2.27
2023-05-19T18:00:51.913Z,2.57
2023-05-19T18:03:19.322Z,2.87
2023-05-19T18:05:46.581Z,2.20
2023-05-19T18:08:13.823Z,2.17
2023-05-19T18:10:41.932Z,2.63
2023-05-19T18:13:10.483Z,1.80
2023-05-19T18:15:37.496Z,2.20
2023-05-19T18:18:05.630Z,1.87
2023-05-19T18:20:34.010Z,2.27
2023-05-19T18:23:01.476Z,2.53
2023-05-19T18:25:28.260Z,2.43
2023-05-19T18:27:55.871Z,2.07
2023-05-19T18:30:25.607Z,2.30
2023-05-19T18:32:52.413Z,2.50
2023-05-19T18:35:21.071Z,2.20
2023-05-19T18:37:47.853Z,2.50
2023-05-19T18:40:14.638Z,2.50
2023-05-19T18:42:41.408Z,2.20
2023-05-19T18:45:08.606Z,2.70
2023-05-19T18:47:35.599Z,2.00
2023-05-19T18:50:02.419Z,2.17
2023-05-19T18:52:30.814Z,2.10
2023-05-19T18:54:57.632Z,2.33
2023-05-19T18:57:24.347Z,3.10
2023-05-19T18:59:51.076Z,8.57
2023-05-19T19:02:17.819Z,6.37
2023-05-19T19:04:45.399Z,3.93
2023-05-19T19:07:12.281Z,3.10
2023-05-19T19:09:39.526Z,3.30
2023-05-19T19:12:06.741Z,3.20
2023-05-19T19:14:33.515Z,2.50
2023-05-19T19:17:00.322Z,2.70
2023-05-19T19:19:29.774Z,3.10
2023-05-19T19:21:57.021Z,4.20
2023-05-19T19:24:23.864Z,3.50
2023-05-19T19:26:50.607Z,4.23
2023-05-19T19:29:18.217Z,3.73
2023-05-19T19:31:45.240Z,4.20
2023-05-19T19:34:12.064Z,4.00
2023-05-19T19:36:38.820Z,4.27
2023-05-19T19:39:05.590Z,4.03
2023-05-19T19:41:33.351Z,4.50
2023-05-19T19:44:00.255Z,3.63
2023-05-19T19:46:27.154Z,2.70
2023-05-19T19:48:57.466Z,3.43
2023-05-19T19:51:24.251Z,3.40
2023-05-19T19:53:51.017Z,3.17
2023-05-19T19:56:17.738Z,2.90
2023-05-19T19:58:44.537Z,3.37
2023-05-19T20:01:11.676Z,2.40
2023-05-19T20:03:38.941Z,3.07
2023-05-19T20:06:05.864Z,3.73
2023-05-19T20:08:32.608Z,3.80
2023-05-19T20:10:59.659Z,3.97
2023-05-19T20:13:26.442Z,4.10
2023-05-19T20:15:53.278Z,4.17
2023-05-19T20:18:20.114Z,4.03
2023-05-19T20:20:46.942Z,3.37
2023-05-19T20:23:16.147Z,4.00
2023-05-19T20:25:57.854Z,4.03
2023-05-19T20:28:29.657Z,3.40
2023-05-19T20:30:56.527Z,3.20
2023-05-19T20:33:23.298Z,3.10
2023-05-19T20:35:50.053Z,3.40
2023-05-19T20:38:16.848Z,4.40
2023-05-19T20:40:43.678Z,6.37
2023-05-19T20:43:10.532Z,8.67
2023-05-19T20:45:37.433Z,8.00
2023-05-19T20:48:05.188Z,7.47
2023-05-19T20:50:32.270Z,8.83
2023-05-19T20:52:59.226Z,4.93
2023-05-19T20:55:26.001Z,4.50
2023-05-19T20:57:52.737Z,4.80
2023-05-19T21:00:19.521Z,4.07
2023-05-19T21:02:46.307Z,2.80
2023-05-19T21:05:13.127Z,2.93
2023-05-19T21:07:39.957Z,3.20
2023-05-19T21:10:07.245Z,3.50
2023-05-19T21:12:34.321Z,2.90
2023-05-19T21:15:01.775Z,3.00
2023-05-19T21:17:28.625Z,2.80
2023-05-19T21:19:58.016Z,2.57
2023-05-19T21:22:26.548Z,4.10
2023-05-19T21:24:57.042Z,3.90
2023-05-19T21:27:23.815Z,3.73
2023-05-19T21:29:54.226Z,3.00
2023-05-19T21:32:21.641Z,3.60
2023-05-19T21:34:48.448Z,3.60
2023-05-19T21:37:17.263Z,3.73
2023-05-19T21:39:44.620Z,3.37
2023-05-19T21:42:11.496Z,3.47
2023-05-19T21:44:38.331Z,3.90
2023-05-19T21:47:05.301Z,3.90
2023-05-19T21:49:32.137Z,4.23
2023-05-19T21:51:58.967Z,3.80
2023-05-19T21:54:25.764Z,3.90
2023-05-19T21:56:52.473Z,3.80
2023-05-19T21:59:23.108Z,3.20
2023-05-19T22:01:50.229Z,3.37
2023-05-19T22:04:18.484Z,3.50
2023-05-19T22:06:45.569Z,4.63
2023-05-19T22:09:12.855Z,4.03
2023-05-19T22:11:39.970Z,3.60
2023-05-19T22:14:06.996Z,3.60
2023-05-19T22:16:33.972Z,3.30
2023-05-19T22:19:00.971Z,3.80
2023-05-19T22:21:27.886Z,4.40
2023-05-19T22:23:54.796Z,4.33
2023-05-19T22:26:22.010Z,3.83
2023-05-19T22:28:49.646Z,3.90
2023-05-19T22:31:16.825Z,4.23
2023-05-19T22:33:43.605Z,4.23
2023-05-19T22:36:11.052Z,3.70
2023-05-19T22:38:37.860Z,4.10
2023-05-19T22:41:04.855Z,3.53
2023-05-19T22:43:31.624Z,4.40
2023-05-19T22:45:58.429Z,3.63
2023-05-19T22:48:25.323Z,3.90
2023-05-19T22:50:52.175Z,3.77
2023-05-19T22:53:18.944Z,3.50
2023-05-19T22:55:45.738Z,3.80
2023-05-19T22:58:12.487Z,3.87
2023-05-19T23:00:39.219Z,3.63
2023-05-19T23:03:06.111Z,4.33
2023-05-19T23:05:33.213Z,4.20
2023-05-19T23:08:00.130Z,4.90
2023-05-19T23:10:26.950Z,4.30
2023-05-19T23:12:53.822Z,4.03
2023-05-19T23:15:20.660Z,4.73
2023-05-19T23:17:47.440Z,4.60
2023-05-19T23:20:14.341Z,4.37
2023-05-19T23:22:41.092Z,4.47
2023-05-19T23:25:08.165Z,4.40
2023-05-19T23:27:38.120Z,5.03
2023-05-19T23:30:05.410Z,4.10
2023-05-19T23:32:32.380Z,4.47
2023-05-19T23:35:12.416Z,4.30
2023-05-19T23:37:39.264Z,5.60
2023-05-19T23:40:07.164Z,5.20
2023-05-19T23:42:34.094Z,4.67
2023-05-19T23:45:00.876Z,5.13
2023-05-19T23:47:27.696Z,4.97
2023-05-19T23:49:54.449Z,4.90
2023-05-19T23:52:21.271Z,5.23
2023-05-19T23:54:48.937Z,4.83
2023-05-19T23:57:15.756Z,4.53
2023-05-19T23:59:43.057Z,4.70
